createdAt,value
2018-12-12T00:01:25.187Z,8.88
2018-12-12T00:03:59.882Z,8.30
2018-12-12T00:06:34.542Z,10.10
2018-12-12T00:09:07.335Z,7.22
2018-12-12T00:11:41.867Z,10.95
2018-12-12T00:14:14.462Z,7.22
2018-12-12T00:16:46.980Z,10.90
2018-12-12T00:19:19.592Z,8.95
2018-12-12T00:21:52.222Z,10.32
2018-12-12T00:24:24.783Z,8.65
2018-12-12T00:26:57.444Z,9.08
2018-12-12T00:29:35.658Z,15.10
2018-12-12T00:32:08.209Z,8.05
2018-12-12T00:34:40.729Z,7.22
2018-12-12T00:37:13.478Z,9.88
2018-12-12T00:39:46.139Z,7.10
2018-12-12T00:42:18.739Z,9.15
2018-12-12T00:44:52.233Z,9.95
2018-12-12T00:47:24.855Z,7.62
2018-12-12T00:49:57.485Z,9.43
2018-12-12T00:52:30.124Z,13.65
2018-12-12T00:55:02.833Z,8.03
2018-12-12T00:57:35.754Z,10.05
2018-12-12T01:00:08.517Z,7.08
2018-12-12T01:02:41.275Z,9.73
2018-12-12T01:05:13.834Z,10.70
2018-12-12T01:07:46.414Z,7.50
2018-12-12T01:10:19.107Z,13.25
2018-12-12T01:12:51.730Z,10.72
2018-12-12T01:15:25.040Z,10.82
2018-12-12T01:17:57.726Z,10.58
2018-12-12T01:20:30.443Z,12.03
2018-12-12T01:23:03.663Z,6.78
2018-12-12T01:25:36.853Z,11.88
2018-12-12T01:28:09.399Z,14.18
2018-12-12T01:30:42.642Z,11.38
2018-12-12T01:33:15.243Z,10.53
2018-12-12T01:35:47.809Z,8.53
2018-12-12T01:38:20.432Z,8.93
2018-12-12T01:40:53.612Z,17.85
2018-12-12T01:43:26.203Z,10.88
2018-12-12T01:45:58.790Z,10.15
2018-12-12T01:48:31.626Z,9.73
2018-12-12T01:51:04.245Z,7.80
2018-12-12T01:53:36.822Z,9.33
2018-12-12T01:56:09.356Z,8.93
2018-12-12T01:58:41.983Z,10.90
2018-12-12T02:01:14.541Z,8.75
2018-12-12T02:03:47.147Z,9.43
2018-12-12T02:06:19.766Z,10.20
2018-12-12T02:08:53.378Z,8.48
2018-12-12T02:11:25.988Z,15.05
2018-12-12T02:15:28.129Z,8.60
2018-12-12T02:18:02.911Z,8.80
2018-12-12T02:20:35.599Z,9.95
2018-12-12T02:23:08.099Z,8.48
2018-12-12T02:25:40.757Z,11.15
2018-12-12T02:28:13.334Z,18.27
2018-12-12T02:30:45.876Z,10.18
2018-12-12T02:33:18.414Z,7.22
2018-12-12T02:35:51.677Z,7.97
2018-12-12T02:38:24.225Z,9.25
2018-12-12T02:40:57.897Z,9.25
2018-12-12T02:43:31.124Z,8.95
2018-12-12T02:46:03.857Z,7.83
2018-12-12T02:48:36.542Z,10.43
2018-12-12T02:51:09.166Z,10.10
2018-12-12T02:53:43.332Z,10.75
2018-12-12T02:56:15.872Z,9.50
2018-12-12T02:58:48.390Z,10.95
2018-12-12T03:01:20.982Z,10.75
2018-12-12T03:03:53.586Z,9.08
2018-12-12T03:06:26.247Z,13.50
2018-12-12T03:08:58.806Z,7.50
2018-12-12T03:11:31.282Z,10.40
2018-12-12T03:14:03.878Z,9.65
2018-12-12T03:16:37.543Z,9.90
2018-12-12T03:19:10.092Z,9.78
2018-12-12T03:21:42.723Z,10.10
2018-12-12T03:24:15.225Z,14.05
2018-12-12T03:26:47.937Z,10.03
2018-12-12T03:29:20.574Z,8.58
2018-12-12T03:31:54.405Z,8.55
2018-12-12T03:34:27.025Z,10.30
2018-12-12T03:36:59.723Z,9.10
2018-12-12T03:39:35.131Z,9.00
2018-12-12T03:42:07.746Z,9.90
2018-12-12T03:44:40.345Z,10.53
2018-12-12T03:47:12.991Z,10.35
2018-12-12T03:49:45.522Z,13.43
2018-12-12T03:52:18.036Z,12.28
2018-12-12T03:54:50.621Z,12.88
2018-12-12T03:57:23.966Z,10.35
2018-12-12T03:59:56.492Z,12.47
2018-12-12T04:02:29.086Z,14.55
2018-12-12T04:05:02.183Z,10.00
2018-12-12T04:07:36.080Z,7.75
2018-12-12T04:10:08.631Z,8.98
2018-12-12T04:12:41.964Z,8.33
2018-12-12T04:15:15.541Z,8.05
2018-12-12T04:17:48.316Z,10.70
2018-12-12T04:20:20.899Z,11.10
2018-12-12T04:22:54.094Z,10.03
2018-12-12T04:25:26.977Z,13.03
2018-12-12T04:27:59.664Z,10.00
2018-12-12T04:30:32.356Z,11.93
2018-12-12T04:33:04.923Z,10.80
2018-12-12T04:35:37.513Z,9.98
2018-12-12T04:38:10.088Z,11.18
2018-12-12T04:40:44.434Z,9.30
2018-12-12T04:43:17.048Z,11.48
2018-12-12T04:45:49.624Z,12.50
2018-12-12T04:48:23.019Z,14.28
2018-12-12T04:50:55.661Z,12.58
2018-12-12T04:53:28.244Z,11.20
2018-12-12T04:56:00.893Z,16.42
2018-12-12T04:58:33.505Z,12.20
2018-12-12T05:01:06.156Z,11.20
2018-12-12T05:03:38.735Z,12.07
2018-12-12T05:06:11.387Z,11.97
2018-12-12T05:08:43.943Z,10.00
2018-12-12T05:11:16.548Z,14.58
2018-12-12T14:15:40.383Z,13.50
2018-12-12T14:18:14.002Z,12.53
2018-12-12T14:20:46.595Z,12.93
2018-12-12T14:23:19.196Z,12.05
2018-12-12T14:25:52.971Z,12.30
2018-12-12T14:28:28.626Z,11.12
2018-12-12T14:31:02.108Z,13.28
2018-12-12T14:33:34.863Z,11.78
2018-12-12T14:36:07.394Z,11.97
2018-12-12T14:38:40.048Z,12.98
2018-12-12T14:41:13.447Z,12.13
2018-12-12T14:43:46.042Z,11.15
2018-12-12T14:46:18.593Z,9.88
2018-12-12T14:48:53.839Z,11.15
2018-12-12T14:51:26.374Z,10.18
2018-12-12T14:53:59.064Z,13.75
2018-12-12T14:56:32.254Z,14.98
2018-12-12T14:59:04.935Z,11.90
2018-12-12T15:01:38.504Z,10.45
2018-12-12T15:04:11.066Z,8.30
2018-12-12T15:06:44.413Z,11.53
2018-12-12T15:09:17.011Z,9.33
2018-12-12T15:11:49.567Z,10.98
2018-12-12T15:14:22.931Z,8.10
2018-12-12T15:16:55.500Z,8.08
2018-12-12T15:19:28.201Z,8.40
2018-12-12T15:22:00.820Z,8.93
2018-12-12T15:24:35.564Z,8.80
2018-12-12T15:27:08.463Z,8.43
2018-12-12T15:29:41.126Z,8.15
2018-12-12T15:32:13.770Z,9.45
2018-12-12T15:34:46.395Z,11.30
2018-12-12T15:37:19.056Z,9.60
2018-12-12T15:39:52.759Z,10.60
2018-12-12T15:42:27.583Z,11.45
2018-12-12T15:45:00.263Z,13.58
2018-12-12T15:47:32.982Z,11.97
2018-12-12T15:50:05.680Z,13.32
2018-12-12T15:52:38.357Z,12.88
2018-12-12T15:55:11.044Z,11.95
2018-12-12T15:57:43.683Z,16.32
2018-12-12T16:00:16.911Z,13.90
2018-12-12T16:02:49.576Z,15.90
2018-12-12T16:05:22.466Z,13.43
2018-12-12T16:07:55.166Z,15.72
2018-12-12T16:10:27.807Z,13.40
2018-12-12T16:13:00.723Z,13.95
2018-12-12T16:15:35.812Z,12.85
2018-12-12T16:18:08.510Z,15.48
2018-12-12T16:20:41.212Z,14.30
2018-12-12T16:23:13.891Z,14.50
2018-12-12T16:25:46.813Z,15.20
2018-12-12T16:28:19.473Z,13.50
2018-12-12T16:30:52.209Z,15.88
2018-12-12T16:33:24.923Z,21.48
2018-12-12T16:35:58.563Z,14.45
2018-12-12T16:38:35.033Z,14.28
2018-12-12T16:41:07.917Z,15.70
2018-12-12T16:43:42.685Z,15.93
2018-12-12T16:46:17.322Z,17.37
2018-12-12T16:48:49.994Z,16.50
2018-12-12T16:51:23.300Z,16.35
2018-12-12T16:53:55.941Z,20.65
2018-12-12T16:56:29.182Z,16.80
2018-12-12T16:59:03.356Z,15.75
2018-12-12T17:01:36.117Z,18.02
2018-12-12T17:04:08.682Z,15.90
2018-12-12T17:06:41.490Z,17.30
2018-12-12T17:09:14.211Z,18.32
2018-12-12T17:11:46.856Z,20.68
2018-12-12T17:14:21.452Z,20.55
2018-12-12T17:16:54.641Z,22.15
2018-12-12T17:19:27.202Z,14.75
2018-12-12T17:21:59.911Z,16.93
2018-12-12T17:24:32.615Z,19.07
2018-12-12T17:27:05.334Z,20.52
2018-12-12T17:29:38.016Z,15.45
2018-12-12T17:32:10.722Z,18.05
2018-12-12T17:34:43.373Z,17.37
2018-12-12T17:37:15.999Z,19.37
2018-12-12T17:39:48.604Z,15.75
2018-12-12T17:42:21.888Z,22.10
2018-12-12T17:44:55.242Z,17.42
2018-12-12T17:47:28.221Z,18.75
2018-12-12T17:50:01.299Z,21.48
2018-12-12T17:52:35.933Z,21.60
2018-12-12T17:55:09.710Z,26.87
2018-12-12T17:57:43.624Z,23.47
2018-12-12T18:00:17.615Z,24.85
2018-12-12T18:02:53.213Z,22.77
2018-12-12T18:05:32.041Z,23.95
2018-12-12T18:08:04.966Z,26.00
2018-12-12T18:10:37.758Z,25.70
2018-12-12T18:13:10.636Z,27.73
2018-12-12T18:15:47.382Z,24.20
2018-12-12T18:18:23.437Z,25.60
2018-12-12T18:20:58.523Z,28.65
2018-12-12T18:23:33.339Z,32.33
2018-12-12T18:26:08.082Z,27.60
2018-12-12T18:28:41.413Z,35.00
2018-12-12T18:31:14.159Z,32.85
2018-12-12T18:33:49.404Z,29.90
2018-12-12T18:36:24.156Z,29.60
2018-12-12T18:38:56.799Z,26.42
2018-12-12T18:41:29.853Z,27.95
2018-12-12T18:44:04.594Z,31.05
2018-12-12T18:46:37.270Z,23.90
2018-12-12T18:49:09.880Z,24.47
2018-12-12T18:51:46.237Z,26.27
2018-12-12T18:54:20.891Z,27.48
2018-12-12T18:56:56.359Z,28.65
2018-12-12T18:59:29.007Z,23.57
2018-12-12T19:02:01.663Z,29.23
2018-12-12T19:04:34.380Z,27.70
2018-12-12T19:07:08.082Z,25.82
2018-12-12T19:09:59.553Z,31.68
2018-12-12T19:12:34.541Z,25.65
2018-12-12T19:15:07.881Z,20.10
2018-12-12T19:17:40.866Z,18.20
2018-12-12T19:20:14.563Z,22.98
2018-12-12T19:22:47.121Z,20.75
2018-12-12T19:25:19.768Z,21.10
2018-12-12T19:27:52.529Z,21.15
2018-12-12T19:30:25.163Z,20.25
2018-12-12T19:37:40.260Z,17.75
2018-12-12T19:40:13.775Z,20.75
2018-12-12T19:42:46.354Z,23.07
2018-12-12T19:45:19.025Z,16.82
2018-12-12T19:47:57.719Z,15.85
2018-12-12T19:50:30.361Z,21.02
2018-12-12T19:53:03.007Z,19.65
2018-12-12T19:55:35.839Z,20.85
2018-12-12T19:58:08.826Z,26.57
2018-12-12T20:00:41.632Z,18.20
2018-12-12T20:03:15.235Z,19.37
2018-12-12T20:05:47.911Z,23.87
2018-12-12T20:08:20.552Z,15.63
2018-12-12T20:10:53.203Z,18.73
2018-12-12T20:13:25.956Z,16.40
2018-12-12T20:15:58.659Z,14.45
2018-12-12T20:18:31.307Z,17.55
2018-12-12T20:21:04.000Z,17.10
2018-12-12T20:23:36.607Z,17.77
2018-12-12T20:26:09.710Z,16.30
2018-12-12T20:28:43.583Z,17.32
2018-12-12T20:31:16.299Z,18.70
2018-12-12T20:33:48.929Z,14.23
2018-12-12T20:36:23.720Z,19.48
2018-12-12T20:38:56.514Z,14.23
2018-12-12T20:41:30.067Z,24.80
2018-12-12T20:44:02.794Z,17.45
2018-12-12T20:46:35.690Z,26.62
2018-12-12T20:49:08.327Z,17.37
2018-12-12T20:51:41.089Z,19.37
2018-12-12T20:54:14.680Z,16.67
2018-12-12T20:56:47.396Z,18.02
2018-12-12T20:59:21.446Z,18.73
2018-12-12T21:01:54.301Z,17.48
2018-12-12T21:04:27.152Z,20.23
2018-12-12T21:07:01.372Z,17.40
2018-12-12T21:09:35.755Z,20.12
2018-12-12T21:12:08.697Z,18.40
2018-12-12T21:14:41.454Z,16.95
2018-12-12T21:17:15.319Z,18.50
2018-12-12T21:19:47.951Z,18.50
2018-12-12T21:22:20.617Z,17.90
2018-12-12T21:24:54.478Z,16.70
2018-12-12T21:27:27.365Z,18.05
2018-12-12T21:30:00.223Z,18.95
2018-12-12T21:32:33.972Z,18.25
2018-12-12T21:35:07.596Z,18.77
2018-12-12T21:37:40.778Z,24.12
2018-12-12T21:40:13.931Z,20.23
2018-12-12T21:42:47.214Z,21.15
2018-12-12T21:45:19.847Z,21.20
2018-12-12T21:47:52.560Z,18.10
2018-12-12T21:50:25.175Z,22.22
2018-12-12T21:52:57.789Z,17.82
2018-12-12T21:55:30.486Z,21.17
2018-12-12T21:58:04.135Z,25.05
2018-12-12T22:00:36.725Z,21.07
2018-12-12T22:03:09.377Z,21.85
2018-12-12T22:05:42.490Z,20.57
2018-12-12T22:08:15.473Z,19.17
2018-12-12T22:10:48.082Z,22.40
2018-12-12T22:13:20.669Z,20.62
2018-12-12T22:15:53.267Z,27.82
2018-12-12T22:19:29.229Z,22.55
2018-12-12T22:22:01.735Z,25.05
2018-12-12T22:24:34.509Z,25.17
2018-12-12T22:27:07.122Z,23.77
2018-12-12T22:29:39.757Z,24.82
2018-12-12T22:32:12.370Z,29.98
2018-12-12T22:34:45.854Z,27.13
2018-12-12T22:37:18.394Z,22.10
2018-12-12T22:39:51.000Z,20.00
2018-12-12T22:42:23.610Z,24.18
2018-12-12T22:44:56.228Z,26.73
2018-12-12T22:47:29.046Z,27.30
2018-12-12T22:50:01.790Z,25.97
2018-12-12T22:52:35.565Z,22.58
2018-12-12T22:55:08.289Z,21.75
2018-12-12T22:57:40.898Z,25.30
2018-12-12T23:00:19.279Z,23.05
2018-12-12T23:02:53.907Z,29.60
2018-12-12T23:05:26.547Z,24.60
2018-12-12T23:07:59.170Z,26.70
2018-12-12T23:10:31.786Z,25.32
2018-12-12T23:13:04.503Z,27.85
2018-12-12T23:15:37.853Z,23.98
2018-12-12T23:18:10.564Z,32.15
2018-12-12T23:20:43.112Z,30.02
2018-12-12T23:23:15.825Z,29.35
2018-12-12T23:25:48.456Z,30.20
2018-12-12T23:28:21.113Z,28.80
2018-12-12T23:30:53.720Z,30.48
2018-12-12T23:33:26.314Z,30.05
2018-12-12T23:35:58.897Z,30.37
2018-12-12T23:38:31.509Z,33.58
2018-12-12T23:41:04.187Z,36.93
2018-12-12T23:43:36.751Z,29.00
2018-12-12T23:46:09.408Z,30.62
2018-12-12T23:48:42.083Z,32.15
2018-12-12T23:51:16.536Z,32.25
2018-12-12T23:53:49.171Z,36.08
2018-12-12T23:56:21.711Z,38.60
2018-12-12T23:58:54.374Z,33.13
